Time;durP1;ratioP1;P1;durP2;ratioP2;P2;SDS_P1;SDS_P2;PMS_P1;PMS_P2;Temp;Humidity;BMP_temperature;BMP_pressure;BME280_temperature;BME280_humidity;BME280_pressure;Samples;Min_cycle;Max_cycle;Signal;HPM_P1;HPM_P2
2023/01/06 00:03:58;;;;;;;2.67;1.38;;;;;;;19.78;58.79;97302.75;10579499;28;20407;-51
2023/01/06 00:09:18;;;;;;;2.28;1.38;;;;;;;19.78;58.69;97312.75;10577294;28;20048;-51
2023/01/06 00:14:37;;;;;;;2.92;1.40;;;;;;;19.76;58.77;97310.38;10537688;28;20048;-52
2023/01/06 00:19:57;;;;;;;3.85;1.40;;;;;;;19.75;58.77;97322.28;10561158;28;20056;-51
2023/01/06 00:25:17;;;;;;;2.70;1.20;;;;;;;19.73;58.80;97322.59;10568656;28;20048;-53
2023/01/06 00:30:36;;;;;;;2.17;1.38;;;;;;;19.72;58.79;97320.22;10562596;28;20047;-52
2023/01/06 00:35:58;;;;;;;3.88;1.63;;;;;;;19.73;58.92;97319.09;10555737;28;20058;-53
2023/01/06 00:46:57;;;;;;;1.92;1.30;;;;;;;19.69;58.79;97324.31;10566799;28;20056;-53
2023/01/06 00:52:16;;;;;;;1.80;1.13;;;;;;;19.69;58.68;97323.50;10576565;28;20058;-52
2023/01/06 00:57:38;;;;;;;2.58;1.50;;;;;;;19.68;58.84;97328.13;10576279;28;20117;-52
2023/01/06 01:02:58;;;;;;;2.47;1.38;;;;;;;19.67;58.99;97329.22;10558289;28;20094;-52
2023/01/06 01:08:17;;;;;;;2.63;1.50;;;;;;;19.66;58.69;97321.41;10570600;28;20058;-52
2023/01/06 01:13:37;;;;;;;4.88;1.20;;;;;;;19.66;58.62;97321.41;10585688;28;20047;-53
2023/01/06 01:18:56;;;;;;;3.03;1.00;;;;;;;19.64;58.42;97318.25;10572742;28;20050;-53
2023/01/06 01:24:16;;;;;;;2.92;1.15;;;;;;;19.62;58.51;97321.28;10557805;28;20393;-52
2023/01/06 01:29:35;;;;;;;1.10;1.00;;;;;;;19.61;58.55;97314.25;10579178;28;20526;-52
2023/01/06 01:34:54;;;;;;;2.35;1.17;;;;;;;19.61;58.55;97314.25;10569377;28;20055;-52
2023/01/06 01:40:14;;;;;;;1.45;1.05;;;;;;;19.59;58.41;97315.69;10590960;28;20040;-52
2023/01/06 01:45:33;;;;;;;1.88;1.10;;;;;;;19.56;58.53;97320.63;10570739;28;20059;-52
2023/01/06 01:50:55;;;;;;;1.52;1.00;;;;;;;19.56;58.43;97317.09;10554862;28;20495;-53
2023/01/06 01:56:18;;;;;;;1.67;1.05;;;;;;;19.54;58.43;97312.03;10559228;28;20479;-52
2023/01/06 02:01:37;;;;;;;2.28;1.20;;;;;;;19.52;58.44;97308.84;10556121;28;20066;-53
2023/01/06 02:06:57;;;;;;;2.45;0.95;;;;;;;19.51;58.37;97309.94;10565642;28;20043;-51
2023/01/06 02:12:17;;;;;;;2.08;1.17;;;;;;;19.50;58.45;97305.66;10572726;28;20059;-52
2023/01/06 02:18:00;;;;;;;1.65;1.00;;;;;;;19.49;58.41;97306.75;10590547;28;20478;-52
2023/01/06 02:23:22;;;;;;;2.00;1.13;;;;;;;19.48;58.41;97291.66;10559530;28;20040;-52
2023/01/06 02:29:04;;;;;;;1.85;0.98;;;;;;;19.45;58.30;97292.25;10593376;28;20047;-52
2023/01/06 02:34:46;;;;;;;2.75;1.10;;;;;;;19.45;58.47;97289.56;10562804;28;20043;-52
2023/01/06 02:40:35;;;;;;;1.08;0.90;;;;;;;19.43;58.42;97293.69;10562933;28;20059;-52
2023/01/06 02:46:09;;;;;;;1.25;0.80;;;;;;;19.41;58.47;97288.59;10563346;28;20078;-52
2023/01/06 02:51:59;;;;;;;1.42;0.98;;;;;;;19.39;58.46;97285.41;10583666;28;20043;-52
2023/01/06 02:57:28;;;;;;;1.80;1.20;;;;;;;19.39;58.42;97290.81;10576395;28;20051;-53
2023/01/06 03:02:57;;;;;;;1.30;1.00;;;;;;;19.37;58.36;97271.41;10551739;28;20048;-52
2023/01/06 03:08:21;;;;;;;1.60;0.90;;;;;;;19.36;58.37;97277.91;10564596;28;20051;-52
2023/01/06 03:13:49;;;;;;;1.73;0.75;;;;;;;19.34;58.29;97272.03;10589882;28;20487;-52
2023/01/06 03:19:11;;;;;;;2.33;0.90;;;;;;;19.32;58.30;97271.53;10550678;28;20070;-52
2023/01/06 03:24:31;;;;;;;1.15;0.85;;;;;;;19.31;58.37;97269.97;10568158;28;20109;-53
2023/01/06 03:29:50;;;;;;;1.20;0.85;;;;;;;19.31;58.34;97265.34;10582321;28;20040;-53
2023/01/06 03:35:29;;;;;;;1.05;0.80;;;;;;;19.30;58.35;97269.13;10574531;28;20416;-51
2023/01/06 03:41:04;;;;;;;1.83;1.00;;;;;;;19.28;58.29;97273.25;10572445;28;20051;-53
2023/01/06 03:46:29;;;;;;;1.60;0.93;;;;;;;19.27;58.46;97261.66;10564005;28;20300;-52
2023/01/06 03:51:55;;;;;;;2.17;0.95;;;;;;;19.25;58.37;97266.59;10550357;28;20059;-52
2023/01/06 03:57:25;;;;;;;1.30;0.90;;;;;;;19.24;58.43;97264.97;10538334;28;20059;-52
2023/01/06 04:02:47;;;;;;;1.52;1.10;;;;;;;19.23;58.52;97268.81;10550984;28;20052;-54
2023/01/06 04:08:10;;;;;;;1.10;0.80;;;;;;;19.21;58.41;97257.50;10592643;28;20388;-53
2023/01/06 04:13:32;;;;;;;1.50;0.70;;;;;;;19.20;58.38;97264.00;10573835;28;20051;-53
2023/01/06 04:18:52;;;;;;;1.10;0.88;;;;;;;19.19;58.39;97262.44;10569268;28;20100;-52
2023/01/06 04:24:11;;;;;;;1.60;0.82;;;;;;;19.17;58.41;97268.13;10578294;28;20052;-51
2023/01/06 04:29:32;;;;;;;1.17;0.70;;;;;;;19.17;58.38;97256.53;10572381;28;20055;-53
2023/01/06 04:34:51;;;;;;;1.48;0.90;;;;;;;19.15;58.50;97248.75;10573052;28;20047;-53
2023/01/06 04:40:11;;;;;;;1.33;0.80;;;;;;;19.13;58.50;97245.56;10573830;28;20062;-51
2023/01/06 04:45:31;;;;;;;0.90;0.65;;;;;;;19.12;58.53;97240.47;10583159;28;20400;-52
2023/01/06 04:51:05;;;;;;;0.95;0.70;;;;;;;19.12;58.53;97245.88;10579457;28;20059;-52
2023/01/06 04:56:24;;;;;;;1.13;0.82;;;;;;;19.09;58.42;97250.00;10560671;28;20048;-52
2023/01/06 05:01:43;;;;;;;0.82;0.60;;;;;;;19.09;58.58;97249.16;10575092;28;20117;-53
2023/01/06 05:07:03;;;;;;;1.25;0.80;;;;;;;19.07;58.48;97252.19;10579792;28;20062;-53
2023/01/06 05:12:22;;;;;;;1.08;0.80;;;;;;;19.07;58.57;97251.38;10567304;28;20496;-50
2023/01/06 05:17:42;;;;;;;1.13;0.80;;;;;;;19.05;58.52;97246.31;10581739;28;20044;-52
2023/01/06 05:23:02;;;;;;;1.20;0.70;;;;;;;19.04;58.45;97244.72;10570086;28;20056;-52
2023/01/06 05:28:21;;;;;;;1.48;0.80;;;;;;;19.05;58.46;97245.50;10578499;28;20051;-52
2023/01/06 05:33:40;;;;;;;1.00;0.80;;;;;;;19.03;58.59;97240.41;10543151;28;20044;-53
2023/01/06 05:38:59;;;;;;;0.70;0.65;;;;;;;19.04;58.49;97244.72;10578263;28;20106;-52
2023/01/06 05:44:19;;;;;;;1.17;0.70;;;;;;;19.05;58.56;97248.19;10588006;28;20407;-51
2023/01/06 05:49:38;;;;;;;1.27;0.85;;;;;;;19.05;58.52;97240.09;10580625;28;20055;-51
2023/01/06 05:54:57;;;;;;;0.73;0.73;;;;;;;19.05;58.38;97237.41;10571283;28;20052;-52
2023/01/06 06:00:17;;;;;;;1.15;0.70;;;;;;;19.06;58.48;97239.00;10571989;28;20560;-51
2023/01/06 06:05:37;;;;;;;1.08;0.63;;;;;;;19.07;58.53;97243.28;10580531;28;20112;-52
2023/01/06 06:11:04;;;;;;;0.60;0.60;;;;;;;19.09;58.77;97246.47;10568928;28;20041;-51
2023/01/06 06:16:25;;;;;;;1.30;0.77;;;;;;;19.10;58.90;97243.47;10583308;28;20036;-52
2023/01/06 06:21:45;;;;;;;0.85;0.60;;;;;;;19.10;58.74;97229.97;10580549;28;20059;-52
2023/01/06 06:27:04;;;;;;;1.25;0.88;;;;;;;19.11;58.65;97231.56;10582677;28;20052;-53
2023/01/06 06:32:24;;;;;;;1.25;0.88;;;;;;;19.13;58.84;97218.56;10571260;28;20060;-52
2023/01/06 06:37:43;;;;;;;0.80;0.60;;;;;;;19.14;58.57;97220.13;10565633;28;20043;-51
2023/01/06 06:43:03;;;;;;;1.10;0.70;;;;;;;19.15;58.41;97221.75;10572834;28;20089;-51
2023/01/06 06:48:22;;;;;;;1.27;0.70;;;;;;;19.17;58.17;97218.72;10578260;28;20055;-52
2023/01/06 06:53:42;;;;;;;0.90;0.80;;;;;;;19.17;58.04;97214.13;10567864;28;20082;-50
2023/01/06 06:59:02;;;;;;;1.55;0.80;;;;;;;19.19;57.92;97207.59;10575732;28;20104;-50
2023/01/06 07:04:21;;;;;;;1.05;0.80;;;;;;;19.19;58.04;97213.00;10574909;28;20101;-50
2023/01/06 07:09:40;;;;;;;1.25;0.80;;;;;;;19.21;57.87;97208.06;10564505;28;20160;-51
2023/01/06 07:14:59;;;;;;;1.88;0.80;;;;;;;19.21;57.83;97210.78;10564801;28;20044;-51
2023/01/06 07:20:19;;;;;;;1.20;0.70;;;;;;;19.23;57.76;97211.25;10557993;28;20051;-51
2023/01/06 07:25:38;;;;;;;1.52;0.70;;;;;;;19.23;57.77;97222.88;10574921;28;20043;-51
2023/01/06 07:30:58;;;;;;;2.25;0.90;;;;;;;19.24;57.79;97224.47;10562754;28;20056;-52
2023/01/06 07:36:18;;;;;;;1.25;0.80;;;;;;;19.27;57.79;97220.38;10580420;28;20055;-51
2023/01/06 07:41:37;;;;;;;2.65;0.80;;;;;;;19.26;57.74;97224.16;10588762;28;20044;-52
2023/01/06 07:47:03;;;;;;;0.95;0.80;;;;;;;19.27;57.78;97213.06;10556787;28;20519;-52
2023/01/06 07:52:23;;;;;;;0.68;0.57;;;;;;;19.30;57.64;97225.13;10570522;28;20050;-52
2023/01/06 07:57:42;;;;;;;1.35;0.70;;;;;;;19.29;57.60;97218.16;10571551;28;20052;-53
2023/01/06 08:03:04;;;;;;;0.73;0.70;;;;;;;19.30;57.58;97217.81;10598349;28;20554;-51
2023/01/06 08:08:23;;;;;;;1.38;0.77;;;;;;;19.31;57.47;97213.22;10585503;28;20505;-51
2023/01/06 08:13:43;;;;;;;1.38;0.98;;;;;;;19.33;57.44;97221.81;10560330;28;20044;-51
2023/01/06 08:19:04;;;;;;;2.28;0.73;;;;;;;19.35;57.28;97216.91;10597737;28;20047;-51
2023/01/06 08:24:23;;;;;;;1.88;0.80;;;;;;;19.35;57.26;97222.28;10579490;28;20052;-53
2023/01/06 08:29:43;;;;;;;0.95;0.70;;;;;;;19.37;57.15;97228.19;10572649;28;20109;-51
2023/01/06 08:35:03;;;;;;;0.95;0.70;;;;;;;19.40;57.03;97226.75;10586244;28;20047;-53
2023/01/06 08:40:22;;;;;;;1.45;0.60;;;;;;;19.40;57.13;97215.94;10575662;28;20063;-53
2023/01/06 08:45:42;;;;;;;1.08;0.60;;;;;;;19.42;57.24;97216.44;10552234;28;20453;-52
2023/01/06 08:51:13;;;;;;;1.08;0.68;;;;;;;19.43;57.17;97204.53;10574771;28;20127;-51
2023/01/06 08:56:33;;;;;;;0.55;0.55;;;;;;;19.44;57.19;97206.88;10571375;28;20040;-52
2023/01/06 09:01:53;;;;;;;0.93;0.60;;;;;;;19.46;57.36;97201.19;10583068;28;20066;-51
2023/01/06 09:07:12;;;;;;;1.40;0.65;;;;;;;19.48;57.16;97202.47;10571853;28;20048;-51
2023/01/06 09:12:33;;;;;;;0.68;0.60;;;;;;;19.49;57.39;97204.06;10543505;28;20081;-52
2023/01/06 09:17:52;;;;;;;1.23;0.73;;;;;;;19.51;57.41;97212.66;10571112;28;20044;-58
2023/01/06 09:23:11;;;;;;;2.50;0.80;;;;;;;19.54;57.48;97211.22;10585005;28;20052;-54
2023/01/06 09:28:31;;;;;;;1.95;0.90;;;;;;;19.56;57.46;97209.81;10584875;28;20040;-52
2023/01/06 09:33:51;;;;;;;1.85;0.63;;;;;;;19.56;57.32;97209.81;10559736;28;20048;-53
2023/01/06 09:39:10;;;;;;;1.17;0.60;;;;;;;19.59;57.21;97223.81;10573346;28;20105;-53
2023/01/06 09:44:34;;;;;;;0.90;0.70;;;;;;;19.60;57.31;97222.69;10587240;28;20082;-53
2023/01/06 09:50:04;;;;;;;0.77;0.60;;;;;;;19.61;57.21;97208.06;10584595;28;20074;-53
2023/01/06 09:55:32;;;;;;;0.82;0.60;;;;;;;19.61;57.27;97200.75;10568517;28;20106;-53
2023/01/06 10:00:53;;;;;;;0.60;0.50;;;;;;;19.63;57.13;97203.94;10559831;28;20048;-52
2023/01/06 10:06:24;;;;;;;2.50;0.68;;;;;;;19.64;57.10;97193.91;10576659;28;20062;-53
2023/01/06 10:11:53;;;;;;;0.95;0.73;;;;;;;19.64;57.05;97194.72;10582754;28;20066;-53
2023/01/06 10:17:34;;;;;;;0.82;0.63;;;;;;;19.65;57.05;97184.69;10588641;28;20059;-53
2023/01/06 10:23:20;;;;;;;1.15;0.70;;;;;;;19.67;56.97;97179.78;10571527;28;20066;-53
2023/01/06 10:28:46;;;;;;;0.80;0.52;;;;;;;19.68;56.97;97184.06;10569191;28;20056;-53
2023/01/06 10:34:16;;;;;;;0.70;0.60;;;;;;;19.69;56.82;97174.84;10581367;28;20063;-52
2023/01/06 10:39:37;;;;;;;1.95;0.60;;;;;;;19.69;56.87;97178.34;10582304;28;20050;-51
2023/01/06 10:44:57;;;;;;;0.93;0.68;;;;;;;19.71;56.85;97169.91;10557280;28;20051;-53
2023/01/06 10:50:18;;;;;;;0.68;0.50;;;;;;;19.72;56.79;97156.13;10578410;28;20081;-51
2023/01/06 10:55:58;;;;;;;0.70;0.50;;;;;;;19.74;56.79;97143.09;10577535;28;20048;-52
2023/01/06 11:01:23;;;;;;;0.65;0.60;;;;;;;19.75;56.77;97119.56;10577871;28;20093;-53
2023/01/06 11:06:53;;;;;;;0.77;0.50;;;;;;;19.78;56.83;97132.44;10569326;28;20040;-53
2023/01/06 11:12:19;;;;;;;0.70;0.43;;;;;;;19.78;56.84;97121.63;10565459;28;20043;-66
2023/01/06 11:17:44;;;;;;;1.88;0.80;;;;;;;19.79;56.86;97117.78;10593392;28;20043;-53
2023/01/06 11:23:21;;;;;;;0.70;0.52;;;;;;;19.80;56.76;97124.00;10567258;28;20036;-52
2023/01/06 11:28:43;;;;;;;0.85;0.60;;;;;;;19.79;56.76;97109.69;10577471;28;20055;-53
2023/01/06 11:34:03;;;;;;;2.40;0.63;;;;;;;19.81;56.55;97103.97;10562272;28;20067;-52
2023/01/06 11:39:34;;;;;;;1.88;0.55;;;;;;;19.80;56.38;97080.75;10573062;28;20058;-52
2023/01/06 11:44:53;;;;;;;1.02;0.70;;;;;;;19.81;56.32;97080.44;10564674;28;20105;-50
2023/01/06 11:50:19;;;;;;;1.20;0.70;;;;;;;19.79;56.29;97066.44;10602846;27;20474;-53
2023/01/06 11:55:38;;;;;;;0.85;0.50;;;;;;;19.81;56.23;97060.72;10615339;28;20079;-53
2023/01/06 12:01:07;;;;;;;1.30;0.65;;;;;;;19.81;56.12;97061.50;10594967;28;20043;-53
2023/01/06 12:06:31;;;;;;;2.20;0.70;;;;;;;19.82;56.18;97055.00;10598774;28;20525;-52
2023/01/06 12:11:52;;;;;;;0.57;0.57;;;;;;;19.82;55.65;97059.63;10603055;28;20061;-51
2023/01/06 12:17:34;;;;;;;0.90;0.60;;;;;;;19.82;55.69;97041.47;10607086;27;20494;-51
2023/01/06 12:23:06;;;;;;;0.50;0.50;;;;;;;19.84;55.75;97033.84;10591641;27;20044;-52
2023/01/06 12:28:35;;;;;;;2.20;0.52;;;;;;;19.85;55.55;97037.34;10579806;28;20047;-49
2023/01/06 12:34:10;;;;;;;1.30;0.60;;;;;;;19.85;55.77;97040.81;10586594;28;20062;-53
2023/01/06 12:39:41;;;;;;;1.48;0.70;;;;;;;19.86;55.70;97033.53;10591387;28;20062;-53
2023/01/06 12:45:13;;;;;;;6.30;1.35;;;;;;;19.86;55.33;97030.81;10606091;28;20059;-53
2023/01/06 12:50:42;;;;;;;10.80;3.60;;;;;;;19.86;55.21;97031.63;10592356;27;20056;-52
2023/01/06 12:56:29;;;;;;;11.73;3.42;;;;;;;19.88;55.47;97031.28;10589392;27;20048;-53
2023/01/06 13:01:50;;;;;;;9.07;2.70;;;;;;;19.88;55.87;97026.69;10610929;27;20507;-53
2023/01/06 13:07:37;;;;;;;7.43;2.60;;;;;;;19.90;56.01;97029.84;10626885;27;20035;-52
2023/01/06 13:13:00;;;;;;;7.78;2.28;;;;;;;19.90;56.46;97027.16;10621717;27;20442;-52
2023/01/06 13:18:31;;;;;;;3.55;1.98;;;;;;;19.92;57.75;97030.31;10617051;27;20068;-52
2023/01/06 13:23:56;;;;;;;5.03;1.58;;;;;;;19.94;58.59;97017.28;10615335;27;20441;-50
2023/01/06 13:29:43;;;;;;;0.90;0.90;;;;;;;19.89;52.18;97039.06;10618037;27;20047;-53
2023/01/06 13:35:40;;;;;;;1.27;0.85;;;;;;;19.84;50.89;97033.06;10595079;27;20073;-52
2023/01/06 13:41:01;;;;;;;2.85;1.10;;;;;;;19.85;52.94;97021.91;10587016;27;20048;-53
2023/01/06 13:46:22;;;;;;;2.28;1.20;;;;;;;19.87;53.48;97018.88;10597328;27;20066;-52
2023/01/06 13:51:43;;;;;;;2.88;1.15;;;;;;;19.89;53.79;97012.03;10605135;27;20403;-53
2023/01/06 13:57:33;;;;;;;2.55;1.02;;;;;;;19.89;53.62;97009.31;10584444;27;20047;-53
2023/01/06 14:02:53;;;;;;;1.65;1.10;;;;;;;19.92;53.98;97029.53;10541337;27;20051;-52
2023/01/06 14:08:17;;;;;;;1.63;1.10;;;;;;;19.93;54.19;97039.22;10601968;27;20043;-53
2023/01/06 14:13:41;;;;;;;1.83;1.17;;;;;;;19.93;54.38;97044.63;10590528;27;20048;-53
2023/01/06 14:19:06;;;;;;;1.35;1.02;;;;;;;19.94;54.43;97044.31;10624053;27;20055;-53
2023/01/06 14:24:27;;;;;;;1.27;1.00;;;;;;;19.95;54.69;97051.34;10609556;27;20043;-54
2023/01/06 14:30:02;;;;;;;2.70;1.20;;;;;;;19.95;54.74;97048.63;10618947;27;20511;-53
2023/01/06 14:35:40;;;;;;;3.17;1.10;;;;;;;19.97;54.83;97044.78;10623156;27;20051;-53
2023/01/06 14:41:12;;;;;;;;;;;;;;;19.95;55.00;97051.34;10589495;27;20095;-54
2023/01/06 14:46:38;;;;;;;2.92;0.90;;;;;;;19.97;55.10;97053.69;10607449;27;19919;-54
2023/01/06 14:52:01;;;;;;;1.65;0.90;;;;;;;20.00;55.14;97049.56;10609265;27;20533;-54
2023/01/06 14:57:31;;;;;;;4.63;1.02;;;;;;;20.00;55.35;97052.28;10604163;27;20406;-53
2023/01/06 15:03:02;;;;;;;2.35;1.00;;;;;;;20.01;55.10;97051.16;10608797;27;20052;-52
2023/01/06 15:08:22;;;;;;;1.70;0.98;;;;;;;20.00;55.28;97053.06;10613354;27;20062;-54
2023/01/06 15:13:42;;;;;;;1.77;0.80;;;;;;;20.02;55.27;97066.28;10620644;27;20051;-53
2023/01/06 15:19:05;;;;;;;1.00;0.88;;;;;;;20.03;55.41;97075.97;10627674;27;20039;-53
2023/01/06 15:24:29;;;;;;;1.35;0.90;;;;;;;20.03;55.39;97078.66;10620212;27;20051;-53
2023/01/06 15:29:54;;;;;;;1.90;1.00;;;;;;;20.03;55.39;97070.53;10610085;27;20059;-53
2023/01/06 15:35:19;;;;;;;1.13;0.70;;;;;;;20.02;55.32;97071.69;10593808;27;20054;-53
2023/01/06 15:40:39;;;;;;;2.50;0.80;;;;;;;20.03;55.29;97076.78;10601061;27;20063;-54
2023/01/06 15:46:04;;;;;;;1.40;0.90;;;;;;;20.05;55.19;97087.25;10590438;27;20421;-52
2023/01/06 15:51:24;;;;;;;1.38;0.90;;;;;;;20.05;55.21;97100.78;10599678;27;20059;-53
2023/01/06 15:56:43;;;;;;;0.98;0.80;;;;;;;20.05;55.11;97114.28;10610954;28;20055;-54
2023/01/06 16:02:03;;;;;;;2.38;0.73;;;;;;;20.05;55.10;97112.41;10619334;28;20062;-53
2023/01/06 16:07:29;;;;;;;1.23;0.80;;;;;;;20.05;55.13;97109.69;10610707;28;20122;-53
2023/01/06 16:13:28;;;;;;;1.38;0.80;;;;;;;20.05;55.11;97115.09;10610414;28;20051;-52
2023/01/06 16:18:48;;;;;;;1.05;0.77;;;;;;;20.05;55.10;97127.81;10610752;28;20043;-52
2023/01/06 16:24:19;;;;;;;0.80;0.75;;;;;;;20.07;55.15;97136.41;10617634;27;20047;-52
2023/01/06 16:29:39;;;;;;;1.23;0.80;;;;;;;20.07;55.03;97131.00;10614978;27;20128;-52
2023/01/06 16:35:01;;;;;;;0.57;0.55;;;;;;;20.07;55.04;97133.69;10623248;27;20407;-53
2023/01/06 16:40:23;;;;;;;0.57;0.57;;;;;;;20.08;54.96;97136.09;10623322;27;20119;-53
2023/01/06 16:45:46;;;;;;;1.63;0.95;;;;;;;20.08;55.14;97127.19;10628537;27;20059;-53
2023/01/06 16:51:11;;;;;;;1.48;0.80;;;;;;;20.08;55.17;97138.00;10606245;27;20054;-52
2023/01/06 16:56:30;;;;;;;2.05;0.80;;;;;;;20.09;55.26;97136.88;10620867;27;20406;-51
2023/01/06 17:01:50;;;;;;;2.47;0.80;;;;;;;20.10;55.37;97135.78;10612694;27;20047;-50
2023/01/06 17:07:14;;;;;;;2.42;0.70;;;;;;;20.10;55.24;97152.00;10618901;27;20502;-50
2023/01/06 17:18:19;;;;;;;1.73;0.70;;;;;;;20.12;55.42;97176.81;10612057;27;20406;-50
2023/01/06 17:24:31;;;;;;;1.45;0.75;;;;;;;20.12;55.54;97190.34;10616651;27;20063;-53
2023/01/06 17:29:52;;;;;;;1.67;0.82;;;;;;;20.13;55.79;97197.34;10596446;27;20491;-54
2023/01/06 17:35:25;;;;;;;2.08;1.00;;;;;;;20.14;55.28;97207.06;10608069;27;20073;-53
2023/01/06 17:40:44;;;;;;;4.78;1.38;;;;;;;20.14;55.30;97193.53;10634693;27;20419;-53
2023/01/06 17:46:19;;;;;;;2.45;1.20;;;;;;;20.11;55.21;97203.09;10605336;27;20062;-54
2023/01/06 17:51:39;;;;;;;4.13;1.00;;;;;;;20.11;55.34;97210.38;10614602;27;20055;-53
2023/01/06 17:56:58;;;;;;;4.22;1.55;;;;;;;20.11;55.32;97196.84;10599743;27;20047;-53
2023/01/06 18:02:21;;;;;;;3.78;1.60;;;;;;;20.11;55.46;97211.19;10587062;27;20050;-53
2023/01/06 18:07:40;;;;;;;4.82;1.60;;;;;;;20.11;55.43;97202.25;10606527;27;20502;-54
2023/01/06 18:13:13;;;;;;;5.47;1.70;;;;;;;20.11;55.55;97211.19;10611105;27;20050;-52
2023/01/06 18:18:38;;;;;;;4.03;1.50;;;;;;;20.10;55.61;97209.59;10621067;27;20043;-54
2023/01/06 18:23:57;;;;;;;4.43;1.58;;;;;;;20.10;55.53;97219.63;10618467;27;20048;-53
2023/01/06 18:29:20;;;;;;;6.32;1.70;;;;;;;20.08;55.59;97208.31;10610750;27;20054;-53
2023/01/06 18:34:42;;;;;;;6.60;1.88;;;;;;;20.07;55.72;97221.06;10609928;27;20058;-54
2023/01/06 18:40:14;;;;;;;5.63;1.90;;;;;;;20.08;55.59;97232.66;10591446;27;20051;-52
2023/01/06 18:45:34;;;;;;;4.55;1.70;;;;;;;20.06;55.65;97232.97;10620682;27;20104;-51
2023/01/06 18:50:56;;;;;;;4.00;1.90;;;;;;;20.06;55.77;97232.97;10598931;27;20062;-52
2023/01/06 18:56:22;;;;;;;4.25;1.70;;;;;;;20.06;55.90;97226.78;10627831;27;20046;-53
2023/01/06 19:01:49;;;;;;;3.97;1.48;;;;;;;20.06;56.08;97229.47;10612865;27;20568;-52
2023/01/06 19:07:15;;;;;;;4.22;1.85;;;;;;;20.05;55.99;97226.00;10596997;27;20047;-52
2023/01/06 19:12:35;;;;;;;3.88;1.50;;;;;;;20.06;56.10;97232.19;10623900;27;20051;-53
2023/01/06 19:17:54;;;;;;;4.25;1.40;;;;;;;20.05;56.14;97244.94;10594515;27;20047;-52
2023/01/06 19:23:22;;;;;;;3.13;1.52;;;;;;;20.05;55.98;97246.81;10610707;27;20459;-52
2023/01/06 19:28:43;;;;;;;3.17;1.60;;;;;;;20.05;55.95;97241.41;10608602;27;20060;-52
2023/01/06 19:34:08;;;;;;;3.33;1.42;;;;;;;20.05;55.95;97244.94;10605893;27;20047;-51
2023/01/06 19:39:38;;;;;;;3.42;1.70;;;;;;;20.06;55.79;97251.13;10606738;27;20543;-53
2023/01/06 19:45:00;;;;;;;3.88;1.40;;;;;;;20.07;55.88;97258.09;10609454;27;20055;-52
2023/01/06 19:50:22;;;;;;;3.83;1.27;;;;;;;20.05;55.79;97263.84;10618752;27;20055;-52
2023/01/06 19:55:41;;;;;;;2.45;1.30;;;;;;;20.06;55.55;97268.13;10607562;27;20047;-53
2023/01/06 20:01:01;;;;;;;3.25;1.30;;;;;;;20.06;55.46;97251.13;10626728;27;20399;-52
2023/01/06 20:06:22;;;;;;;3.35;1.23;;;;;;;20.06;55.41;97246.50;10609000;28;20054;-51
2023/01/06 20:11:42;;;;;;;2.30;1.23;;;;;;;20.06;55.36;97253.81;10593675;28;20054;-52
2023/01/06 20:17:02;;;;;;;3.28;1.50;;;;;;;20.07;55.34;97263.50;10604538;28;20424;-51
2023/01/06 20:22:24;;;;;;;2.63;1.30;;;;;;;20.07;55.14;97260.81;10618584;28;20490;-52
2023/01/06 20:27:46;;;;;;;2.33;1.20;;;;;;;20.08;55.13;97265.91;10615521;27;20047;-53
2023/01/06 20:33:05;;;;;;;2.20;1.00;;;;;;;20.08;54.98;97268.63;10615766;28;20048;-53
2023/01/06 20:38:25;;;;;;;2.70;1.25;;;;;;;20.10;55.07;97271.00;10606326;28;20047;-53
2023/01/06 20:43:45;;;;;;;2.88;1.13;;;;;;;20.10;55.10;97279.13;10609836;28;20055;-52
2023/01/06 20:49:05;;;;;;;3.95;1.35;;;;;;;20.09;55.15;97299.16;10612043;28;20047;-53
2023/01/06 20:54:24;;;;;;;3.83;1.10;;;;;;;20.10;54.95;97287.25;10612189;28;20522;-54
2023/01/06 20:59:43;;;;;;;1.60;1.00;;;;;;;20.11;54.97;97291.53;10578183;28;20058;-54
2023/01/06 21:05:04;;;;;;;2.28;1.15;;;;;;;20.10;55.02;97288.03;10578852;28;20059;-53
2023/01/06 21:10:24;;;;;;;2.95;1.08;;;;;;;20.11;54.95;97286.94;10623573;27;20054;-52
2023/01/06 21:15:44;;;;;;;2.95;1.35;;;;;;;20.12;54.96;97282.31;10617197;27;20048;-53
2023/01/06 21:21:03;;;;;;;1.73;0.95;;;;;;;20.12;54.92;97288.50;10614394;27;20051;-51
2023/01/06 21:26:23;;;;;;;1.75;0.90;;;;;;;20.11;54.94;97289.63;10621709;27;20051;-53
2023/01/06 21:31:42;;;;;;;1.98;1.10;;;;;;;20.12;54.94;97295.84;10612458;27;20062;-51
2023/01/06 21:37:02;;;;;;;1.63;1.00;;;;;;;20.12;55.08;97299.31;10612364;27;20058;-53
2023/01/06 21:47:59;;;;;;;1.35;0.98;;;;;;;20.11;55.05;97302.34;10627594;27;20406;-54
2023/01/06 21:53:20;;;;;;;1.38;0.80;;;;;;;20.11;55.09;97305.03;10615924;27;20055;-53
2023/01/06 21:58:39;;;;;;;1.77;1.00;;;;;;;20.10;55.16;97292.66;10606225;27;20059;-53
2023/01/06 22:03:59;;;;;;;2.65;1.10;;;;;;;20.08;55.05;97295.66;10606298;27;20055;-53
2023/01/06 22:09:20;;;;;;;2.30;1.00;;;;;;;20.08;54.99;97303.00;10603004;27;20047;-53
2023/01/06 22:14:40;;;;;;;1.88;1.00;;;;;;;20.08;55.03;97308.41;10637612;27;20406;-53
2023/01/06 22:20:00;;;;;;;1.65;1.00;;;;;;;20.07;54.99;97309.50;10619615;27;20039;-53
2023/01/06 22:25:19;;;;;;;1.25;0.82;;;;;;;20.06;54.98;97313.31;10610399;27;20058;-52
2023/01/06 22:30:38;;;;;;;2.15;0.95;;;;;;;20.05;55.05;97309.03;10623271;27;20066;-53
2023/01/06 22:35:58;;;;;;;1.67;0.80;;;;;;;20.05;54.90;97317.94;10596319;27;20047;-53
2023/01/06 22:41:18;;;;;;;2.30;0.85;;;;;;;20.03;55.12;97319.34;10617699;27;20085;-53
2023/01/06 22:46:37;;;;;;;1.95;0.70;;;;;;;20.04;55.21;97320.97;10621037;27;20055;-53
2023/01/06 22:51:57;;;;;;;1.20;0.70;;;;;;;20.02;55.23;97317.78;10604783;27;20055;-54
2023/01/06 22:57:16;;;;;;;1.63;0.80;;;;;;;20.01;55.28;97316.16;10582310;27;20048;-52
2023/01/06 23:02:35;;;;;;;1.60;0.80;;;;;;;20.01;55.32;97316.16;10602703;27;20039;-52
2023/01/06 23:07:55;;;;;;;2.10;0.93;;;;;;;20.00;55.32;97320.78;10620629;27;20441;-52
2023/01/06 23:13:14;;;;;;;1.45;0.85;;;;;;;19.98;55.39;97314.91;10596696;27;20092;-51
2023/01/06 23:18:35;;;;;;;2.67;0.90;;;;;;;19.98;55.38;97319.53;10607035;27;20051;-52
2023/01/06 23:23:55;;;;;;;2.53;0.85;;;;;;;19.97;55.36;97320.63;10581150;28;20055;-52
2023/01/06 23:29:15;;;;;;;1.77;0.85;;;;;;;19.94;55.41;97325.53;10612567;27;20096;-52
2023/01/06 23:34:34;;;;;;;1.80;0.80;;;;;;;19.92;55.50;97314.25;10612882;27;20051;-52
2023/01/06 23:39:54;;;;;;;2.47;0.98;;;;;;;19.92;55.44;97308.03;10590275;27;20104;-52
2023/01/06 23:45:13;;;;;;;2.15;1.15;;;;;;;19.90;55.41;97311.06;10590075;27;20211;-52
2023/01/06 23:50:33;;;;;;;0.73;0.70;;;;;;;19.89;55.47;97306.75;10607816;27;20410;-52
2023/01/06 23:56:07;;;;;;;1.05;0.80;;;;;;;19.88;55.40;97307.88;10612627;27;20047;-51
